sensor_id;sensor_type;location;lat;lon;timestamp;pressure;altitude;pressure_sealevel;temperature;humidity
22688;BME280;11511;51.514;7.080;2024-02-15T00:01:15;101260.22;;;11.34;nan
22688;BME280;11511;51.514;7.080;2024-02-15T00:03:40;101262.13;;;11.29;nan
22688;BME280;11511;51.514;7.080;2024-02-15T00:06:06;101254.94;;;11.34;nan
22688;BME280;11511;51.514;7.080;2024-02-15T00:08:31;101262.78;;;11.37;nan
22688;BME280;11511;51.514;7.080;2024-02-15T00:10:57;101267.09;;;11.39;nan
22688;BME280;11511;51.514;7.080;2024-02-15T00:13:23;101255.91;;;11.31;nan
22688;BME280;11511;51.514;7.080;2024-02-15T00:15:48;101266.41;;;11.33;nan
22688;BME280;11511;51.514;7.080;2024-02-15T00:18:14;101265.50;;;11.34;nan
22688;BME280;11511;51.514;7.080;2024-02-15T00:20:39;101264.66;;;11.32;nan
22688;BME280;11511;51.514;7.080;2024-02-15T00:23:04;101258.50;;;11.33;nan
22688;BME280;11511;51.514;7.080;2024-02-15T00:25:31;101262.16;;;11.27;nan
22688;BME280;11511;51.514;7.080;2024-02-15T00:27:56;101261.41;;;11.22;nan
22688;BME280;11511;51.514;7.080;2024-02-15T00:30:21;101267.53;;;11.24;nan
22688;BME280;11511;51.514;7.080;2024-02-15T00:32:46;101274.31;;;11.33;nan
22688;BME280;11511;51.514;7.080;2024-02-15T00:35:12;101273.44;;;11.32;nan
22688;BME280;11511;51.514;7.080;2024-02-15T00:37:38;101265.66;;;11.28;nan
22688;BME280;11511;51.514;7.080;2024-02-15T00:40:03;101271.94;;;11.24;nan
22688;BME280;11511;51.514;7.080;2024-02-15T00:42:29;101265.63;;;11.29;nan
22688;BME280;11511;51.514;7.080;2024-02-15T00:44:56;101270.91;;;11.29;nan
22688;BME280;11511;51.514;7.080;2024-02-15T00:47:22;101278.81;;;11.29;nan
22688;BME280;11511;51.514;7.080;2024-02-15T00:49:47;101282.25;;;11.31;nan
22688;BME280;11511;51.514;7.080;2024-02-15T00:52:12;101277.91;;;11.30;nan
22688;BME280;11511;51.514;7.080;2024-02-15T00:54:38;101281.34;;;11.32;nan
22688;BME280;11511;51.514;7.080;2024-02-15T00:57:03;101277.03;;;11.30;nan
22688;BME280;11511;51.514;7.080;2024-02-15T00:59:28;101277.78;;;11.35;nan
22688;BME280;11511;51.514;7.080;2024-02-15T01:01:53;101269.84;;;11.35;nan
22688;BME280;11511;51.514;7.080;2024-02-15T01:04:19;101282.25;;;11.31;nan
22688;BME280;11511;51.514;7.080;2024-02-15T01:06:44;101279.53;;;11.34;nan
22688;BME280;11511;51.514;7.080;2024-02-15T01:09:10;101275.34;;;11.27;nan
22688;BME280;11511;51.514;7.080;2024-02-15T01:11:35;101273.34;;;11.35;nan
22688;BME280;11511;51.514;7.080;2024-02-15T01:14:01;101272.28;;;11.42;nan
22688;BME280;11511;51.514;7.080;2024-02-15T01:16:27;101272.44;;;11.36;nan
22688;BME280;11511;51.514;7.080;2024-02-15T01:18:52;101268.09;;;11.35;nan
22688;BME280;11511;51.514;7.080;2024-02-15T01:21:17;101272.50;;;11.35;nan
22688;BME280;11511;51.514;7.080;2024-02-15T01:23:44;101266.31;;;11.36;nan
22688;BME280;11511;51.514;7.080;2024-02-15T01:26:09;101264.63;;;11.33;nan
22688;BME280;11511;51.514;7.080;2024-02-15T01:28:37;101261.00;;;11.37;nan
22688;BME280;11511;51.514;7.080;2024-02-15T01:31:02;101255.91;;;11.31;nan
22688;BME280;11511;51.514;7.080;2024-02-15T01:33:27;101262.28;;;11.23;nan
22688;BME280;11511;51.514;7.080;2024-02-15T01:35:53;101266.75;;;11.50;nan
22688;BME280;11511;51.514;7.080;2024-02-15T01:38:18;101269.47;;;11.48;nan
22688;BME280;11511;51.514;7.080;2024-02-15T01:40:44;101263.97;;;11.54;nan
22688;BME280;11511;51.514;7.080;2024-02-15T01:43:09;101259.53;;;11.57;nan
22688;BME280;11511;51.514;7.080;2024-02-15T01:45:34;101263.06;;;11.56;nan
22688;BME280;11511;51.514;7.080;2024-02-15T01:47:59;101256.13;;;11.53;nan
22688;BME280;11511;51.514;7.080;2024-02-15T01:50:28;101256.03;;;11.56;nan
22688;BME280;11511;51.514;7.080;2024-02-15T01:52:54;101250.84;;;11.53;nan
22688;BME280;11511;51.514;7.080;2024-02-15T01:55:22;101254.53;;;11.47;nan
22688;BME280;11511;51.514;7.080;2024-02-15T01:57:47;101252.47;;;11.57;nan
22688;BME280;11511;51.514;7.080;2024-02-15T02:00:14;101249.00;;;11.55;nan
22688;BME280;11511;51.514;7.080;2024-02-15T02:02:41;101247.09;;;11.60;nan
22688;BME280;11511;51.514;7.080;2024-02-15T02:05:07;101256.06;;;11.54;nan
22688;BME280;11511;51.514;7.080;2024-02-15T02:07:32;101248.28;;;11.50;nan
22688;BME280;11511;51.514;7.080;2024-02-15T02:09:58;101248.16;;;11.54;nan
22688;BME280;11511;51.514;7.080;2024-02-15T02:12:23;101245.38;;;11.59;nan
22688;BME280;11511;51.514;7.080;2024-02-15T02:14:49;101240.16;;;11.58;nan
22688;BME280;11511;51.514;7.080;2024-02-15T02:17:15;101234.97;;;11.54;nan
22688;BME280;11511;51.514;7.080;2024-02-15T02:19:41;101232.31;;;11.54;nan
22688;BME280;11511;51.514;7.080;2024-02-15T02:22:08;101232.31;;;11.54;nan
22688;BME280;11511;51.514;7.080;2024-02-15T02:24:36;101227.97;;;11.53;nan
22688;BME280;11511;51.514;7.080;2024-02-15T02:27:05;101219.38;;;11.47;nan
22688;BME280;11511;51.514;7.080;2024-02-15T02:29:32;101219.28;;;11.50;nan
22688;BME280;11511;51.514;7.080;2024-02-15T02:31:58;101216.50;;;11.54;nan
22688;BME280;11511;51.514;7.080;2024-02-15T02:34:24;101218.31;;;11.52;nan
22688;BME280;11511;51.514;7.080;2024-02-15T02:36:50;101205.16;;;11.51;nan
22688;BME280;11511;51.514;7.080;2024-02-15T02:39:16;101202.69;;;11.46;nan
22688;BME280;11511;51.514;7.080;2024-02-15T02:41:42;101202.84;;;11.42;nan
22688;BME280;11511;51.514;7.080;2024-02-15T02:44:08;101200.19;;;11.42;nan
22688;BME280;11511;51.514;7.080;2024-02-15T02:46:33;101201.41;;;11.30;nan
22688;BME280;11511;51.514;7.080;2024-02-15T02:49:03;101194.00;;;11.43;nan
22688;BME280;11511;51.514;7.080;2024-02-15T02:51:28;101202.00;;;11.40;nan
22688;BME280;11511;51.514;7.080;2024-02-15T02:53:54;101202.97;;;11.37;nan
22688;BME280;11511;51.514;7.080;2024-02-15T02:56:19;101200.34;;;11.37;nan
22688;BME280;11511;51.514;7.080;2024-02-15T02:58:44;101196.09;;;11.32;nan
22688;BME280;11511;51.514;7.080;2024-02-15T03:01:10;101197.50;;;11.43;nan
22688;BME280;11511;51.514;7.080;2024-02-15T03:03:38;101199.94;;;11.49;nan
22688;BME280;11511;51.514;7.080;2024-02-15T03:06:05;101205.47;;;11.42;nan
22688;BME280;11511;51.514;7.080;2024-02-15T03:08:31;101190.41;;;11.45;nan
22688;BME280;11511;51.514;7.080;2024-02-15T03:10:57;101187.69;;;11.48;nan
22688;BME280;11511;51.514;7.080;2024-02-15T03:13:24;101183.25;;;11.49;nan
22688;BME280;11511;51.514;7.080;2024-02-15T03:15:50;101192.97;;;11.48;nan
22688;BME280;11511;51.514;7.080;2024-02-15T03:18:16;101190.38;;;11.47;nan
22688;BME280;11511;51.514;7.080;2024-02-15T03:20:42;101184.19;;;11.48;nan
22688;BME280;11511;51.514;7.080;2024-02-15T03:23:08;101189.28;;;11.52;nan
22688;BME280;11511;51.514;7.080;2024-02-15T03:25:34;101184.09;;;11.49;nan
22688;BME280;11511;51.514;7.080;2024-02-15T03:28:00;101183.16;;;11.52;nan
22688;BME280;11511;51.514;7.080;2024-02-15T03:30:32;101181.19;;;11.59;nan
22688;BME280;11511;51.514;7.080;2024-02-15T03:32:59;101171.94;;;11.73;nan
22688;BME280;11511;51.514;7.080;2024-02-15T03:35:25;101167.91;;;11.62;nan
22688;BME280;11511;51.514;7.080;2024-02-15T03:37:53;101166.91;;;11.66;nan
22688;BME280;11511;51.514;7.080;2024-02-15T03:40:20;101166.53;;;11.78;nan
22688;BME280;11511;51.514;7.080;2024-02-15T03:42:47;101162.88;;;11.82;nan
22688;BME280;11511;51.514;7.080;2024-02-15T03:45:13;101169.00;;;11.82;nan
22688;BME280;11511;51.514;7.080;2024-02-15T03:47:39;101159.31;;;11.83;nan
22688;BME280;11511;51.514;7.080;2024-02-15T03:50:05;101158.50;;;11.81;nan
22688;BME280;11511;51.514;7.080;2024-02-15T03:52:31;101163.13;;;11.46;nan
22688;BME280;11511;51.514;7.080;2024-02-15T03:54:57;101168.88;;;11.59;nan
22688;BME280;11511;51.514;7.080;2024-02-15T03:57:25;101164.69;;;11.80;nan
22688;BME280;11511;51.514;7.080;2024-02-15T03:59:51;101169.81;;;11.84;nan
22688;BME280;11511;51.514;7.080;2024-02-15T04:02:21;101173.38;;;11.83;nan
22688;BME280;11511;51.514;7.080;2024-02-15T04:04:49;101155.56;;;11.90;nan
22688;BME280;11511;51.514;7.080;2024-02-15T04:07:15;101164.50;;;11.86;nan
22688;BME280;11511;51.514;7.080;2024-02-15T04:09:41;101157.63;;;11.80;nan
22688;BME280;11511;51.514;7.080;2024-02-15T04:12:07;101162.97;;;11.79;nan
22688;BME280;11511;51.514;7.080;2024-02-15T04:14:33;101162.78;;;11.85;nan
22688;BME280;11511;51.514;7.080;2024-02-15T04:16:59;101163.88;;;11.78;nan
22688;BME280;11511;51.514;7.080;2024-02-15T04:19:30;101163.94;;;11.76;nan
22688;BME280;11511;51.514;7.080;2024-02-15T04:21:56;101163.72;;;11.82;nan
22688;BME280;11511;51.514;7.080;2024-02-15T04:24:25;101163.00;;;11.77;nan
22688;BME280;11511;51.514;7.080;2024-02-15T04:26:51;101160.38;;;11.77;nan
22688;BME280;11511;51.514;7.080;2024-02-15T04:29:16;101159.72;;;11.71;nan
22688;BME280;11511;51.514;7.080;2024-02-15T04:31:45;101150.00;;;11.71;nan
22688;BME280;11511;51.514;7.080;2024-02-15T04:34:17;101153.53;;;11.72;nan
22688;BME280;11511;51.514;7.080;2024-02-15T04:36:45;101149.28;;;11.66;nan
22688;BME280;11511;51.514;7.080;2024-02-15T04:39:15;101159.94;;;11.91;nan
22688;BME280;11511;51.514;7.080;2024-02-15T04:41:52;101159.28;;;11.84;nan
22688;BME280;11511;51.514;7.080;2024-02-15T04:44:18;101160.28;;;11.80;nan
22688;BME280;11511;51.514;7.080;2024-02-15T04:46:46;101160.66;;;11.68;nan
22688;BME280;11511;51.514;7.080;2024-02-15T04:49:15;101154.44;;;11.71;nan
22688;BME280;11511;51.514;7.080;2024-02-15T04:51:41;101150.88;;;11.72;nan
22688;BME280;11511;51.514;7.080;2024-02-15T04:54:08;101151.03;;;11.67;nan
22688;BME280;11511;51.514;7.080;2024-02-15T04:56:33;101148.56;;;11.61;nan
22688;BME280;11511;51.514;7.080;2024-02-15T04:59:01;101149.34;;;11.65;nan
22688;BME280;11511;51.514;7.080;2024-02-15T05:01:27;101153.81;;;11.63;nan
22688;BME280;11511;51.514;7.080;2024-02-15T05:03:54;101147.63;;;11.64;nan
22688;BME280;11511;51.514;7.080;2024-02-15T05:06:23;101145.66;;;11.70;nan
22688;BME280;11511;51.514;7.080;2024-02-15T05:08:49;101138.63;;;11.69;nan
22688;BME280;11511;51.514;7.080;2024-02-15T05:11:14;101136.81;;;11.71;nan
22688;BME280;11511;51.514;7.080;2024-02-15T05:13:45;101134.81;;;11.79;nan
22688;BME280;11511;51.514;7.080;2024-02-15T05:16:14;101128.75;;;11.76;nan
22688;BME280;11511;51.514;7.080;2024-02-15T05:18:39;101128.00;;;11.72;nan
22688;BME280;11511;51.514;7.080;2024-02-15T05:21:05;101117.94;;;11.83;nan
22688;BME280;11511;51.514;7.080;2024-02-15T05:23:34;101131.19;;;11.82;nan
22688;BME280;11511;51.514;7.080;2024-02-15T05:26:00;101137.50;;;11.78;nan
22688;BME280;11511;51.514;7.080;2024-02-15T05:28:26;101132.59;;;11.66;nan
22688;BME280;11511;51.514;7.080;2024-02-15T05:33:39;101131.50;;;11.73;nan
22688;BME280;11511;51.514;7.080;2024-02-15T05:36:12;101134.31;;;11.67;nan
22688;BME280;11511;51.514;7.080;2024-02-15T05:38:38;101130.91;;;11.63;nan
22688;BME280;11511;51.514;7.080;2024-02-15T05:41:04;101131.94;;;11.59;nan
22688;BME280;11511;51.514;7.080;2024-02-15T05:43:30;101136.16;;;11.65;nan
22688;BME280;11511;51.514;7.080;2024-02-15T05:45:57;101142.16;;;11.70;nan
22688;BME280;11511;51.514;7.080;2024-02-15T05:48:24;101130.72;;;11.69;nan
22688;BME280;11511;51.514;7.080;2024-02-15T05:50:50;101137.94;;;11.64;nan
22688;BME280;11511;51.514;7.080;2024-02-15T05:53:15;101130.72;;;11.69;nan
22688;BME280;11511;51.514;7.080;2024-02-15T05:55:41;101127.75;;;11.80;nan
22688;BME280;11511;51.514;7.080;2024-02-15T05:58:10;101132.88;;;11.84;nan
22688;BME280;11511;51.514;7.080;2024-02-15T06:00:37;101124.44;;;11.73;nan
22688;BME280;11511;51.514;7.080;2024-02-15T06:03:04;101131.28;;;11.79;nan
22688;BME280;11511;51.514;7.080;2024-02-15T06:05:29;101130.38;;;11.80;nan
22688;BME280;11511;51.514;7.080;2024-02-15T06:07:55;101130.44;;;11.78;nan
22688;BME280;11511;51.514;7.080;2024-02-15T06:10:21;101126.50;;;11.92;nan
22688;BME280;11511;51.514;7.080;2024-02-15T06:12:47;101125.56;;;11.93;nan
22688;BME280;11511;51.514;7.080;2024-02-15T06:15:13;101127.59;;;11.84;nan
22688;BME280;11511;51.514;7.080;2024-02-15T06:17:41;101131.91;;;11.87;nan
22688;BME280;11511;51.514;7.080;2024-02-15T06:20:14;101126.50;;;11.64;nan
22688;BME280;11511;51.514;7.080;2024-02-15T06:22:43;101131.69;;;11.67;nan
22688;BME280;11511;51.514;7.080;2024-02-15T06:25:09;101140.28;;;11.73;nan
22688;BME280;11511;51.514;7.080;2024-02-15T06:27:36;101131.84;;;11.62;nan
22688;BME280;11511;51.514;7.080;2024-02-15T06:30:07;101129.88;;;11.69;nan
22688;BME280;11511;51.514;7.080;2024-02-15T06:32:51;101136.44;;;11.56;nan
22688;BME280;11511;51.514;7.080;2024-02-15T06:35:36;101142.38;;;11.62;nan
22688;BME280;11511;51.514;7.080;2024-02-15T06:38:20;101138.84;;;11.63;nan
22688;BME280;11511;51.514;7.080;2024-02-15T06:41:04;101139.78;;;11.61;nan
22688;BME280;11511;51.514;7.080;2024-02-15T06:43:29;101138.97;;;11.59;nan
22688;BME280;11511;51.514;7.080;2024-02-15T06:45:54;101140.56;;;11.64;nan
22688;BME280;11511;51.514;7.080;2024-02-15T06:48:20;101139.25;;;11.77;nan
22688;BME280;11511;51.514;7.080;2024-02-15T06:50:48;101138.34;;;11.78;nan
22688;BME280;11511;51.514;7.080;2024-02-15T06:53:14;101138.50;;;11.74;nan
22688;BME280;11511;51.514;7.080;2024-02-15T06:55:39;101139.97;;;11.82;nan
22688;BME280;11511;51.514;7.080;2024-02-15T06:58:05;101145.41;;;11.78;nan
22688;BME280;11511;51.514;7.080;2024-02-15T07:00:30;101149.91;;;11.74;nan
22688;BME280;11511;51.514;7.080;2024-02-15T07:02:56;101152.78;;;11.67;nan
22688;BME280;11511;51.514;7.080;2024-02-15T07:05:22;101148.44;;;11.66;nan
22688;BME280;11511;51.514;7.080;2024-02-15T07:07:56;101158.34;;;11.58;nan
22688;BME280;11511;51.514;7.080;2024-02-15T07:10:21;101147.91;;;11.54;nan
22688;BME280;11511;51.514;7.080;2024-02-15T07:12:47;101161.97;;;11.55;nan
22688;BME280;11511;51.514;7.080;2024-02-15T07:15:12;101161.84;;;11.58;nan
22688;BME280;11511;51.514;7.080;2024-02-15T07:17:37;101153.91;;;11.60;nan
22688;BME280;11511;51.514;7.080;2024-02-15T07:20:03;101147.19;;;11.49;nan
22688;BME280;11511;51.514;7.080;2024-02-15T07:22:31;101143.81;;;11.46;nan
22688;BME280;11511;51.514;7.080;2024-02-15T07:24:57;101141.97;;;11.48;nan
22688;BME280;11511;51.514;7.080;2024-02-15T07:27:22;101131.53;;;11.45;nan
22688;BME280;11511;51.514;7.080;2024-02-15T07:29:50;101137.66;;;11.45;nan
22688;BME280;11511;51.514;7.080;2024-02-15T07:32:15;101132.63;;;11.38;nan
22688;BME280;11511;51.514;7.080;2024-02-15T07:34:42;101129.03;;;11.40;nan
22688;BME280;11511;51.514;7.080;2024-02-15T07:37:08;101128.88;;;11.45;nan
22688;BME280;11511;51.514;7.080;2024-02-15T07:39:34;101128.06;;;11.43;nan
22688;BME280;11511;51.514;7.080;2024-02-15T07:42:01;101125.44;;;11.43;nan
22688;BME280;11511;51.514;7.080;2024-02-15T07:44:28;101114.59;;;11.50;nan
22688;BME280;11511;51.514;7.080;2024-02-15T07:46:55;101113.91;;;11.45;nan
22688;BME280;11511;51.514;7.080;2024-02-15T07:49:20;101111.53;;;11.38;nan
22688;BME280;11511;51.514;7.080;2024-02-15T07:51:47;101115.69;;;11.45;nan
22688;BME280;11511;51.514;7.080;2024-02-15T07:54:17;101112.28;;;11.41;nan
22688;BME280;11511;51.514;7.080;2024-02-15T07:56:46;101111.06;;;11.51;nan
22688;BME280;11511;51.514;7.080;2024-02-15T07:59:11;101114.78;;;11.46;nan
22688;BME280;11511;51.514;7.080;2024-02-15T08:01:36;101119.34;;;11.41;nan
22688;BME280;11511;51.514;7.080;2024-02-15T08:04:01;101125.28;;;11.47;nan
22688;BME280;11511;51.514;7.080;2024-02-15T08:06:27;101127.03;;;11.48;nan
22688;BME280;11511;51.514;7.080;2024-02-15T08:08:53;101135.44;;;11.60;nan
22688;BME280;11511;51.514;7.080;2024-02-15T08:11:18;101134.41;;;11.64;nan
22688;BME280;11511;51.514;7.080;2024-02-15T08:13:44;101143.06;;;11.69;nan
22688;BME280;11511;51.514;7.080;2024-02-15T08:16:23;101135.09;;;11.70;nan
22688;BME280;11511;51.514;7.080;2024-02-15T08:18:49;101125.34;;;11.72;nan
22688;BME280;11511;51.514;7.080;2024-02-15T08:21:17;101138.59;;;11.71;nan
22688;BME280;11511;51.514;7.080;2024-02-15T08:23:42;101148.28;;;11.70;nan
22688;BME280;11511;51.514;7.080;2024-02-15T08:26:08;101126.31;;;11.70;nan
22688;BME280;11511;51.514;7.080;2024-02-15T08:28:36;101133.03;;;11.80;nan
22688;BME280;11511;51.514;7.080;2024-02-15T08:31:01;101139.38;;;11.74;nan
22688;BME280;11511;51.514;7.080;2024-02-15T08:33:26;101127.91;;;11.75;nan
22688;BME280;11511;51.514;7.080;2024-02-15T08:35:53;101131.28;;;11.79;nan
22688;BME280;11511;51.514;7.080;2024-02-15T08:38:20;101129.31;;;11.85;nan
22688;BME280;11511;51.514;7.080;2024-02-15T08:40:46;101120.69;;;11.80;nan
22688;BME280;11511;51.514;7.080;2024-02-15T08:43:12;101127.94;;;11.74;nan
22688;BME280;11511;51.514;7.080;2024-02-15T08:45:38;101126.97;;;11.76;nan
22688;BME280;11511;51.514;7.080;2024-02-15T08:48:04;101118.41;;;11.70;nan
22688;BME280;11511;51.514;7.080;2024-02-15T08:50:29;101132.22;;;11.78;nan
22688;BME280;11511;51.514;7.080;2024-02-15T08:52:55;101131.50;;;11.73;nan
22688;BME280;11511;51.514;7.080;2024-02-15T08:55:21;101130.63;;;11.72;nan
22688;BME280;11511;51.514;7.080;2024-02-15T08:57:49;101117.44;;;11.72;nan
22688;BME280;11511;51.514;7.080;2024-02-15T09:00:14;101117.38;;;11.74;nan
22688;BME280;11511;51.514;7.080;2024-02-15T09:02:41;101128.75;;;11.76;nan
22688;BME280;11511;51.514;7.080;2024-02-15T09:05:06;101110.47;;;11.70;nan
22688;BME280;11511;51.514;7.080;2024-02-15T09:07:32;101118.16;;;11.77;nan
22688;BME280;11511;51.514;7.080;2024-02-15T09:09:57;101116.19;;;11.84;nan
22688;BME280;11511;51.514;7.080;2024-02-15T09:12:23;101116.22;;;11.82;nan
22688;BME280;11511;51.514;7.080;2024-02-15T09:14:48;101118.50;;;11.93;nan
22688;BME280;11511;51.514;7.080;2024-02-15T09:17:13;101109.88;;;11.88;nan
22688;BME280;11511;51.514;7.080;2024-02-15T09:19:39;101115.50;;;11.77;nan
22688;BME280;11511;51.514;7.080;2024-02-15T09:22:04;101110.38;;;11.73;nan
22688;BME280;11511;51.514;7.080;2024-02-15T09:24:32;101102.47;;;11.73;nan
22688;BME280;11511;51.514;7.080;2024-02-15T09:26:59;101104.28;;;11.71;nan
22688;BME280;11511;51.514;7.080;2024-02-15T09:29:25;101102.00;;;11.86;nan
22688;BME280;11511;51.514;7.080;2024-02-15T09:31:51;101095.88;;;11.86;nan
22688;BME280;11511;51.514;7.080;2024-02-15T09:34:17;101094.75;;;11.93;nan
22688;BME280;11511;51.514;7.080;2024-02-15T09:36:43;101093.69;;;11.99;nan
22688;BME280;11511;51.514;7.080;2024-02-15T09:39:08;101085.72;;;12.00;nan
22688;BME280;11511;51.514;7.080;2024-02-15T09:41:33;101095.69;;;12.17;nan
22688;BME280;11511;51.514;7.080;2024-02-15T09:43:59;101088.19;;;12.30;nan
22688;BME280;11511;51.514;7.080;2024-02-15T09:46:26;101084.53;;;12.32;nan
22688;BME280;11511;51.514;7.080;2024-02-15T09:48:51;101067.94;;;12.53;nan
22688;BME280;11511;51.514;7.080;2024-02-15T09:51:23;101070.69;;;12.50;nan
22688;BME280;11511;51.514;7.080;2024-02-15T09:53:50;101061.66;;;12.79;nan
22688;BME280;11511;51.514;7.080;2024-02-15T09:56:15;101059.25;;;12.73;nan
22688;BME280;11511;51.514;7.080;2024-02-15T09:58:41;101065.56;;;12.69;nan
22688;BME280;11511;51.514;7.080;2024-02-15T10:01:08;101066.03;;;12.80;nan
22688;BME280;11511;51.514;7.080;2024-02-15T10:03:34;101051.38;;;12.72;nan
22688;BME280;11511;51.514;7.080;2024-02-15T10:06:02;101055.16;;;12.65;nan
22688;BME280;11511;51.514;7.080;2024-02-15T10:08:27;101057.97;;;12.60;nan
22688;BME280;11511;51.514;7.080;2024-02-15T10:11:10;101061.38;;;12.64;nan
22688;BME280;11511;51.514;7.080;2024-02-15T10:13:36;101060.75;;;12.80;nan
22688;BME280;11511;51.514;7.080;2024-02-15T10:19:09;101053.44;;;13.09;nan
22688;BME280;11511;51.514;7.080;2024-02-15T10:21:35;101059.00;;;13.25;nan
22688;BME280;11511;51.514;7.080;2024-02-15T10:24:04;101057.53;;;13.39;nan
22688;BME280;11511;51.514;7.080;2024-02-15T10:26:30;101060.59;;;13.71;nan
22688;BME280;11511;51.514;7.080;2024-02-15T10:29:09;101055.91;;;13.57;nan
22688;BME280;11511;51.514;7.080;2024-02-15T10:31:35;101054.06;;;13.79;nan
22688;BME280;11511;51.514;7.080;2024-02-15T10:34:02;101051.72;;;13.72;nan
22688;BME280;11511;51.514;7.080;2024-02-15T10:36:29;101051.94;;;14.08;nan
22688;BME280;11511;51.514;7.080;2024-02-15T10:39:01;101060.72;;;14.29;nan
22688;BME280;11511;51.514;7.080;2024-02-15T10:41:35;101047.31;;;13.72;nan
22688;BME280;11511;51.514;7.080;2024-02-15T10:44:01;101043.41;;;13.61;nan
22688;BME280;11511;51.514;7.080;2024-02-15T10:46:27;101046.94;;;13.39;nan
22688;BME280;11511;51.514;7.080;2024-02-15T10:48:52;101038.63;;;13.48;nan
22688;BME280;11511;51.514;7.080;2024-02-15T10:51:17;101032.88;;;13.59;nan
22688;BME280;11511;51.514;7.080;2024-02-15T10:53:47;101032.03;;;13.59;nan
22688;BME280;11511;51.514;7.080;2024-02-15T10:56:21;101038.63;;;13.69;nan
22688;BME280;11511;51.514;7.080;2024-02-15T10:58:50;101030.34;;;13.97;nan
22688;BME280;11511;51.514;7.080;2024-02-15T11:01:18;101029.56;;;13.74;nan
22688;BME280;11511;51.514;7.080;2024-02-15T11:03:47;101032.38;;;13.92;nan
22688;BME280;11511;51.514;7.080;2024-02-15T11:06:16;101039.38;;;13.93;nan
22688;BME280;11511;51.514;7.080;2024-02-15T11:08:44;101031.63;;;13.88;nan
22688;BME280;11511;51.514;7.080;2024-02-15T11:11:10;101035.44;;;14.01;nan
22688;BME280;11511;51.514;7.080;2024-02-15T11:13:39;101029.09;;;14.05;nan
22688;BME280;11511;51.514;7.080;2024-02-15T11:16:04;101029.81;;;14.09;nan
22688;BME280;11511;51.514;7.080;2024-02-15T11:21:09;101020.94;;;14.10;nan
22688;BME280;11511;51.514;7.080;2024-02-15T11:23:35;101025.25;;;14.12;nan
22688;BME280;11511;51.514;7.080;2024-02-15T11:26:00;101017.97;;;13.97;nan
22688;BME280;11511;51.514;7.080;2024-02-15T11:30:54;101023.13;;;14.41;nan
22688;BME280;11511;51.514;7.080;2024-02-15T11:33:32;101020.56;;;14.38;nan
22688;BME280;11511;51.514;7.080;2024-02-15T11:38:30;101007.31;;;14.38;nan
22688;BME280;11511;51.514;7.080;2024-02-15T11:46:08;101013.09;;;14.47;nan
22688;BME280;11511;51.514;7.080;2024-02-15T11:48:36;100989.94;;;14.51;nan
22688;BME280;11511;51.514;7.080;2024-02-15T11:51:04;100993.09;;;14.59;nan
22688;BME280;11511;51.514;7.080;2024-02-15T11:53:31;100993.75;;;14.45;nan
22688;BME280;11511;51.514;7.080;2024-02-15T11:56:00;100981.13;;;14.69;nan
22688;BME280;11511;51.514;7.080;2024-02-15T11:58:27;100982.50;;;14.59;nan
22688;BME280;11511;51.514;7.080;2024-02-15T12:01:07;100989.34;;;14.82;nan
22688;BME280;11511;51.514;7.080;2024-02-15T12:03:54;100990.84;;;14.87;nan
22688;BME280;11511;51.514;7.080;2024-02-15T12:06:38;100982.31;;;14.81;nan
22688;BME280;11511;51.514;7.080;2024-02-15T12:09:22;100980.47;;;15.19;nan
22688;BME280;11511;51.514;7.080;2024-02-15T12:12:06;100977.19;;;15.48;nan
22688;BME280;11511;51.514;7.080;2024-02-15T12:14:50;100974.44;;;15.33;nan
22688;BME280;11511;51.514;7.080;2024-02-15T12:17:41;100968.28;;;15.15;nan
22688;BME280;11511;51.514;7.080;2024-02-15T12:20:24;100964.31;;;15.23;nan
22688;BME280;11511;51.514;7.080;2024-02-15T12:22:51;100969.50;;;15.08;nan
22688;BME280;11511;51.514;7.080;2024-02-15T12:25:17;100963.81;;;14.98;nan
22688;BME280;11511;51.514;7.080;2024-02-15T12:27:46;100959.44;;;15.14;nan
22688;BME280;11511;51.514;7.080;2024-02-15T12:30:15;100955.09;;;15.31;nan
22688;BME280;11511;51.514;7.080;2024-02-15T12:32:40;100946.13;;;15.50;nan
22688;BME280;11511;51.514;7.080;2024-02-15T12:35:09;100942.06;;;15.43;nan
22688;BME280;11511;51.514;7.080;2024-02-15T12:37:37;100949.78;;;15.65;nan
22688;BME280;11511;51.514;7.080;2024-02-15T12:40:19;100947.59;;;15.73;nan
22688;BME280;11511;51.514;7.080;2024-02-15T12:42:45;100936.22;;;15.87;nan
22688;BME280;11511;51.514;7.080;2024-02-15T12:45:15;100935.81;;;16.12;nan
22688;BME280;11511;51.514;7.080;2024-02-15T12:47:43;100937.75;;;16.08;nan
22688;BME280;11511;51.514;7.080;2024-02-15T12:50:14;100924.31;;;16.27;nan
22688;BME280;11511;51.514;7.080;2024-02-15T12:52:40;100922.53;;;16.28;nan
22688;BME280;11511;51.514;7.080;2024-02-15T12:55:12;100929.78;;;16.08;nan
22688;BME280;11511;51.514;7.080;2024-02-15T12:57:38;100926.22;;;16.41;nan
22688;BME280;11511;51.514;7.080;2024-02-15T13:00:08;100931.06;;;16.66;nan
22688;BME280;11511;51.514;7.080;2024-02-15T13:02:39;100919.19;;;17.17;nan
22688;BME280;11511;51.514;7.080;2024-02-15T13:05:07;100923.19;;;17.24;nan
22688;BME280;11511;51.514;7.080;2024-02-15T13:07:37;100926.84;;;17.67;nan
22688;BME280;11511;51.514;7.080;2024-02-15T13:10:02;100916.22;;;17.07;nan
22688;BME280;11511;51.514;7.080;2024-02-15T13:12:28;100921.00;;;17.46;nan
22688;BME280;11511;51.514;7.080;2024-02-15T13:14:54;100914.50;;;17.36;nan
22688;BME280;11511;51.514;7.080;2024-02-15T13:17:19;100915.78;;;17.29;nan
22688;BME280;11511;51.514;7.080;2024-02-15T13:19:48;100905.06;;;17.31;nan
22688;BME280;11511;51.514;7.080;2024-02-15T13:22:14;100899.47;;;17.35;nan
22688;BME280;11511;51.514;7.080;2024-02-15T13:24:40;100908.97;;;17.39;nan
22688;BME280;11511;51.514;7.080;2024-02-15T13:27:05;100901.63;;;16.99;nan
22688;BME280;11511;51.514;7.080;2024-02-15T13:29:31;100892.16;;;17.09;nan